sensor_id;sensor_type;location;lat;lon;timestamp;temperature;humidity
84173;DHT22;74302;40.122;18.310;2024-01-27T00:00:34;10.60;63.00
84173;DHT22;74302;40.122;18.310;2024-01-27T00:02:18;10.60;63.00
84173;DHT22;74302;40.122;18.310;2024-01-27T00:04:02;10.60;62.90
84173;DHT22;74302;40.122;18.310;2024-01-27T00:05:46;10.60;62.90
84173;DHT22;74302;40.122;18.310;2024-01-27T00:07:29;10.60;62.80
84173;DHT22;74302;40.122;18.310;2024-01-27T00:09:13;10.60;62.80
84173;DHT22;74302;40.122;18.310;2024-01-27T00:10:56;10.60;62.90
84173;DHT22;74302;40.122;18.310;2024-01-27T00:13:26;10.60;62.90
84173;DHT22;74302;40.122;18.310;2024-01-27T00:16:53;10.60;62.80
84173;DHT22;74302;40.122;18.310;2024-01-27T00:19:49;10.60;62.80
84173;DHT22;74302;40.122;18.310;2024-01-27T00:21:36;10.60;62.70
84173;DHT22;74302;40.122;18.310;2024-01-27T00:23:20;10.60;62.70
84173;DHT22;74302;40.122;18.310;2024-01-27T00:25:04;10.60;62.70
84173;DHT22;74302;40.122;18.310;2024-01-27T00:26:49;10.60;62.70
84173;DHT22;74302;40.122;18.310;2024-01-27T00:28:33;10.50;62.80
84173;DHT22;74302;40.122;18.310;2024-01-27T00:30:17;10.60;62.80
84173;DHT22;74302;40.122;18.310;2024-01-27T00:32:02;10.60;62.90
84173;DHT22;74302;40.122;18.310;2024-01-27T00:33:45;10.50;62.90
84173;DHT22;74302;40.122;18.310;2024-01-27T00:35:29;10.60;62.90
84173;DHT22;74302;40.122;18.310;2024-01-27T00:37:12;10.60;62.80
84173;DHT22;74302;40.122;18.310;2024-01-27T00:38:57;10.60;62.90
84173;DHT22;74302;40.122;18.310;2024-01-27T00:40:41;10.60;62.90
84173;DHT22;74302;40.122;18.310;2024-01-27T00:42:56;10.60;62.90
84173;DHT22;74302;40.122;18.310;2024-01-27T00:48:52;10.60;62.80
84173;DHT22;74302;40.122;18.310;2024-01-27T00:50:36;10.50;62.70
84173;DHT22;74302;40.122;18.310;2024-01-27T00:52:20;10.60;62.70
84173;DHT22;74302;40.122;18.310;2024-01-27T00:54:03;10.50;62.70
84173;DHT22;74302;40.122;18.310;2024-01-27T00:55:47;10.40;62.80
84173;DHT22;74302;40.122;18.310;2024-01-27T00:57:31;10.30;62.90
84173;DHT22;74302;40.122;18.310;2024-01-27T00:59:15;10.20;62.90
84173;DHT22;74302;40.122;18.310;2024-01-27T01:00:59;10.10;63.20
84173;DHT22;74302;40.122;18.310;2024-01-27T01:02:42;10.10;63.20
84173;DHT22;74302;40.122;18.310;2024-01-27T01:04:28;10.10;63.30
84173;DHT22;74302;40.122;18.310;2024-01-27T01:06:12;10.10;63.30
84173;DHT22;74302;40.122;18.310;2024-01-27T01:07:55;10.10;63.30
84173;DHT22;74302;40.122;18.310;2024-01-27T01:09:39;10.10;63.30
84173;DHT22;74302;40.122;18.310;2024-01-27T01:12:15;10.10;63.30
84173;DHT22;74302;40.122;18.310;2024-01-27T01:18:31;10.20;63.20
84173;DHT22;74302;40.122;18.310;2024-01-27T01:20:35;10.20;63.10
84173;DHT22;74302;40.122;18.310;2024-01-27T01:22:18;10.20;63.00
84173;DHT22;74302;40.122;18.310;2024-01-27T01:24:02;10.20;63.10
84173;DHT22;74302;40.122;18.310;2024-01-27T01:25:46;10.10;63.10
84173;DHT22;74302;40.122;18.310;2024-01-27T01:27:29;10.10;63.10
84173;DHT22;74302;40.122;18.310;2024-01-27T01:29:14;10.10;63.00
84173;DHT22;74302;40.122;18.310;2024-01-27T01:30:58;10.10;63.10
84173;DHT22;74302;40.122;18.310;2024-01-27T01:32:41;10.10;63.00
84173;DHT22;74302;40.122;18.310;2024-01-27T01:34:26;10.10;63.00
84173;DHT22;74302;40.122;18.310;2024-01-27T01:36:10;10.00;63.10
84173;DHT22;74302;40.122;18.310;2024-01-27T01:37:54;10.10;63.10
84173;DHT22;74302;40.122;18.310;2024-01-27T01:39:37;10.00;63.10
84173;DHT22;74302;40.122;18.310;2024-01-27T01:41:21;9.90;63.10
84173;DHT22;74302;40.122;18.310;2024-01-27T01:43:09;9.90;63.20
84173;DHT22;74302;40.122;18.310;2024-01-27T01:44:54;9.90;63.30
84173;DHT22;74302;40.122;18.310;2024-01-27T01:46:37;9.90;63.30
84173;DHT22;74302;40.122;18.310;2024-01-27T01:48:22;9.90;63.30
84173;DHT22;74302;40.122;18.310;2024-01-27T01:50:07;9.90;63.30
84173;DHT22;74302;40.122;18.310;2024-01-27T01:51:51;9.90;63.20
84173;DHT22;74302;40.122;18.310;2024-01-27T01:54:07;9.90;63.20
84173;DHT22;74302;40.122;18.310;2024-01-27T01:56:38;9.80;63.20
84173;DHT22;74302;40.122;18.310;2024-01-27T01:59:10;9.90;63.10
84173;DHT22;74302;40.122;18.310;2024-01-27T02:01:12;9.80;63.10
84173;DHT22;74302;40.122;18.310;2024-01-27T02:02:58;9.80;63.10
84173;DHT22;74302;40.122;18.310;2024-01-27T02:04:41;9.70;63.10
84173;DHT22;74302;40.122;18.310;2024-01-27T02:06:27;9.80;63.20
84173;DHT22;74302;40.122;18.310;2024-01-27T02:08:11;9.70;63.20
84173;DHT22;74302;40.122;18.310;2024-01-27T02:09:54;9.70;63.20
84173;DHT22;74302;40.122;18.310;2024-01-27T02:11:39;9.70;63.30
84173;DHT22;74302;40.122;18.310;2024-01-27T02:13:23;9.80;63.30
84173;DHT22;74302;40.122;18.310;2024-01-27T02:15:09;9.80;63.20
84173;DHT22;74302;40.122;18.310;2024-01-27T02:16:53;9.80;63.10
84173;DHT22;74302;40.122;18.310;2024-01-27T02:18:37;9.80;63.10
84173;DHT22;74302;40.122;18.310;2024-01-27T02:20:20;9.80;63.10
84173;DHT22;74302;40.122;18.310;2024-01-27T02:22:06;9.70;63.10
84173;DHT22;74302;40.122;18.310;2024-01-27T02:23:49;9.70;63.10
84173;DHT22;74302;40.122;18.310;2024-01-27T02:25:38;9.70;63.20
84173;DHT22;74302;40.122;18.310;2024-01-27T02:27:24;9.70;63.30
84173;DHT22;74302;40.122;18.310;2024-01-27T02:29:12;9.70;63.30
84173;DHT22;74302;40.122;18.310;2024-01-27T02:31:20;9.70;63.30
84173;DHT22;74302;40.122;18.310;2024-01-27T02:33:29;9.80;63.40
84173;DHT22;74302;40.122;18.310;2024-01-27T02:35:14;9.80;63.30
84173;DHT22;74302;40.122;18.310;2024-01-27T02:36:58;9.90;63.30
84173;DHT22;74302;40.122;18.310;2024-01-27T02:38:42;9.90;63.20
84173;DHT22;74302;40.122;18.310;2024-01-27T02:40:26;10.00;63.20
84173;DHT22;74302;40.122;18.310;2024-01-27T02:42:10;10.10;63.10
84173;DHT22;74302;40.122;18.310;2024-01-27T02:43:54;10.10;63.10
84173;DHT22;74302;40.122;18.310;2024-01-27T02:45:54;10.10;63.10
84173;DHT22;74302;40.122;18.310;2024-01-27T02:48:26;10.10;63.10
84173;DHT22;74302;40.122;18.310;2024-01-27T02:51:35;10.10;63.00
84173;DHT22;74302;40.122;18.310;2024-01-27T02:53:57;10.10;63.00
84173;DHT22;74302;40.122;18.310;2024-01-27T02:55:41;10.10;63.00
84173;DHT22;74302;40.122;18.310;2024-01-27T02:57:27;10.20;62.90
84173;DHT22;74302;40.122;18.310;2024-01-27T02:59:11;10.20;62.90
84173;DHT22;74302;40.122;18.310;2024-01-27T03:00:56;10.20;62.90
84173;DHT22;74302;40.122;18.310;2024-01-27T03:02:40;10.20;62.90
84173;DHT22;74302;40.122;18.310;2024-01-27T03:04:24;10.20;62.90
84173;DHT22;74302;40.122;18.310;2024-01-27T03:06:07;10.20;62.90
84173;DHT22;74302;40.122;18.310;2024-01-27T03:07:51;10.20;62.90
84173;DHT22;74302;40.122;18.310;2024-01-27T03:09:34;10.20;62.90
84173;DHT22;74302;40.122;18.310;2024-01-27T03:11:19;10.20;63.00
84173;DHT22;74302;40.122;18.310;2024-01-27T03:13:04;10.20;62.90
84173;DHT22;74302;40.122;18.310;2024-01-27T03:14:47;10.20;62.80
84173;DHT22;74302;40.122;18.310;2024-01-27T03:16:33;10.30;62.80
84173;DHT22;74302;40.122;18.310;2024-01-27T03:18:18;10.30;62.80
84173;DHT22;74302;40.122;18.310;2024-01-27T03:20:03;10.30;62.80
84173;DHT22;74302;40.122;18.310;2024-01-27T03:21:47;10.30;62.80
84173;DHT22;74302;40.122;18.310;2024-01-27T03:23:31;10.30;62.80
84173;DHT22;74302;40.122;18.310;2024-01-27T03:25:15;10.40;62.80
84173;DHT22;74302;40.122;18.310;2024-01-27T03:26:59;10.40;62.70
84173;DHT22;74302;40.122;18.310;2024-01-27T03:28:43;10.40;62.60
84173;DHT22;74302;40.122;18.310;2024-01-27T03:30:28;10.40;62.60
84173;DHT22;74302;40.122;18.310;2024-01-27T03:32:11;10.40;62.60
84173;DHT22;74302;40.122;18.310;2024-01-27T03:33:55;10.50;62.60
84173;DHT22;74302;40.122;18.310;2024-01-27T03:35:39;10.40;62.60
84173;DHT22;74302;40.122;18.310;2024-01-27T03:37:23;10.50;62.50
84173;DHT22;74302;40.122;18.310;2024-01-27T03:39:06;10.50;62.50
84173;DHT22;74302;40.122;18.310;2024-01-27T03:40:51;10.50;62.50
84173;DHT22;74302;40.122;18.310;2024-01-27T03:42:36;10.50;62.50
84173;DHT22;74302;40.122;18.310;2024-01-27T03:44:21;10.60;62.50
84173;DHT22;74302;40.122;18.310;2024-01-27T03:46:05;10.60;62.50
84173;DHT22;74302;40.122;18.310;2024-01-27T03:47:48;10.60;62.50
84173;DHT22;74302;40.122;18.310;2024-01-27T03:49:33;10.60;62.40
84173;DHT22;74302;40.122;18.310;2024-01-27T03:51:17;10.60;62.40
84173;DHT22;74302;40.122;18.310;2024-01-27T03:53:01;10.70;62.40
84173;DHT22;74302;40.122;18.310;2024-01-27T03:54:45;10.70;62.30
84173;DHT22;74302;40.122;18.310;2024-01-27T03:56:30;10.70;62.30
84173;DHT22;74302;40.122;18.310;2024-01-27T03:58:13;10.70;62.40
84173;DHT22;74302;40.122;18.310;2024-01-27T03:59:59;10.70;62.40
84173;DHT22;74302;40.122;18.310;2024-01-27T04:01:43;10.70;62.30
84173;DHT22;74302;40.122;18.310;2024-01-27T04:03:26;10.70;62.30
84173;DHT22;74302;40.122;18.310;2024-01-27T04:05:10;10.70;62.30
84173;DHT22;74302;40.122;18.310;2024-01-27T04:06:53;10.60;62.40
84173;DHT22;74302;40.122;18.310;2024-01-27T04:08:37;10.70;62.40
84173;DHT22;74302;40.122;18.310;2024-01-27T04:10:20;10.70;62.40
84173;DHT22;74302;40.122;18.310;2024-01-27T04:12:05;10.70;62.40
84173;DHT22;74302;40.122;18.310;2024-01-27T04:13:50;10.70;62.40
84173;DHT22;74302;40.122;18.310;2024-01-27T04:15:35;10.70;62.40
84173;DHT22;74302;40.122;18.310;2024-01-27T04:17:21;10.70;62.50
84173;DHT22;74302;40.122;18.310;2024-01-27T04:19:05;10.70;62.50
84173;DHT22;74302;40.122;18.310;2024-01-27T04:20:49;10.70;62.50
84173;DHT22;74302;40.122;18.310;2024-01-27T04:22:33;10.80;62.50
84173;DHT22;74302;40.122;18.310;2024-01-27T04:24:17;10.80;62.40
84173;DHT22;74302;40.122;18.310;2024-01-27T04:26:00;10.80;62.50
84173;DHT22;74302;40.122;18.310;2024-01-27T04:27:45;10.80;62.50
84173;DHT22;74302;40.122;18.310;2024-01-27T04:29:30;10.80;62.50
84173;DHT22;74302;40.122;18.310;2024-01-27T04:31:16;10.70;62.60
84173;DHT22;74302;40.122;18.310;2024-01-27T04:33:01;10.70;62.60
84173;DHT22;74302;40.122;18.310;2024-01-27T04:34:45;10.70;62.70
84173;DHT22;74302;40.122;18.310;2024-01-27T04:36:30;10.80;62.70
84173;DHT22;74302;40.122;18.310;2024-01-27T04:38:14;10.70;62.70
84173;DHT22;74302;40.122;18.310;2024-01-27T04:39:57;10.70;62.80
84173;DHT22;74302;40.122;18.310;2024-01-27T04:41:42;10.70;62.80
84173;DHT22;74302;40.122;18.310;2024-01-27T04:43:26;10.70;62.80
84173;DHT22;74302;40.122;18.310;2024-01-27T04:45:10;10.70;62.80
84173;DHT22;74302;40.122;18.310;2024-01-27T04:46:55;10.70;62.90
84173;DHT22;74302;40.122;18.310;2024-01-27T04:48:39;10.70;62.80
84173;DHT22;74302;40.122;18.310;2024-01-27T04:50:23;10.70;62.80
84173;DHT22;74302;40.122;18.310;2024-01-27T04:52:07;10.70;62.80
84173;DHT22;74302;40.122;18.310;2024-01-27T04:53:50;10.70;62.70
84173;DHT22;74302;40.122;18.310;2024-01-27T04:55:35;10.70;62.70
84173;DHT22;74302;40.122;18.310;2024-01-27T04:57:21;10.70;62.70
84173;DHT22;74302;40.122;18.310;2024-01-27T04:59:13;10.70;62.80
84173;DHT22;74302;40.122;18.310;2024-01-27T05:01:00;10.70;62.80
84173;DHT22;74302;40.122;18.310;2024-01-27T05:02:48;10.70;62.80
84173;DHT22;74302;40.122;18.310;2024-01-27T05:04:34;10.70;62.80
84173;DHT22;74302;40.122;18.310;2024-01-27T05:06:18;10.80;62.80
84173;DHT22;74302;40.122;18.310;2024-01-27T05:08:03;10.80;62.80
84173;DHT22;74302;40.122;18.310;2024-01-27T05:09:46;10.80;62.90
84173;DHT22;74302;40.122;18.310;2024-01-27T05:11:31;10.90;62.80
84173;DHT22;74302;40.122;18.310;2024-01-27T05:13:15;10.90;62.80
84173;DHT22;74302;40.122;18.310;2024-01-27T05:15:00;10.90;62.80
84173;DHT22;74302;40.122;18.310;2024-01-27T05:16:43;11.00;62.80
84173;DHT22;74302;40.122;18.310;2024-01-27T05:18:28;10.90;62.80
84173;DHT22;74302;40.122;18.310;2024-01-27T05:20:11;11.00;62.80
84173;DHT22;74302;40.122;18.310;2024-01-27T05:21:56;11.00;62.80
84173;DHT22;74302;40.122;18.310;2024-01-27T05:23:39;11.00;62.90
84173;DHT22;74302;40.122;18.310;2024-01-27T05:25:24;11.00;62.90
84173;DHT22;74302;40.122;18.310;2024-01-27T05:27:07;11.10;62.90
84173;DHT22;74302;40.122;18.310;2024-01-27T05:28:52;11.10;62.90
84173;DHT22;74302;40.122;18.310;2024-01-27T05:30:36;11.10;62.90
84173;DHT22;74302;40.122;18.310;2024-01-27T05:32:20;11.10;63.00
84173;DHT22;74302;40.122;18.310;2024-01-27T05:34:05;11.10;63.00
84173;DHT22;74302;40.122;18.310;2024-01-27T05:35:49;11.10;63.00
84173;DHT22;74302;40.122;18.310;2024-01-27T05:37:34;11.10;63.10
84173;DHT22;74302;40.122;18.310;2024-01-27T05:39:18;11.10;63.10
84173;DHT22;74302;40.122;18.310;2024-01-27T05:41:03;11.10;63.10
84173;DHT22;74302;40.122;18.310;2024-01-27T05:42:46;11.10;63.20
84173;DHT22;74302;40.122;18.310;2024-01-27T05:44:31;11.10;63.20
84173;DHT22;74302;40.122;18.310;2024-01-27T05:46:15;11.10;63.30
84173;DHT22;74302;40.122;18.310;2024-01-27T05:47:59;11.20;63.30
84173;DHT22;74302;40.122;18.310;2024-01-27T05:49:45;11.20;63.30
84173;DHT22;74302;40.122;18.310;2024-01-27T05:51:29;11.20;63.30
84173;DHT22;74302;40.122;18.310;2024-01-27T05:53:13;11.30;63.40
84173;DHT22;74302;40.122;18.310;2024-01-27T05:54:57;11.30;63.40
84173;DHT22;74302;40.122;18.310;2024-01-27T05:56:40;11.30;63.40
84173;DHT22;74302;40.122;18.310;2024-01-27T05:58:24;11.40;63.40
84173;DHT22;74302;40.122;18.310;2024-01-27T06:00:32;11.40;63.50
84173;DHT22;74302;40.122;18.310;2024-01-27T06:04:15;11.50;63.50
84173;DHT22;74302;40.122;18.310;2024-01-27T06:06:38;11.60;63.30
84173;DHT22;74302;40.122;18.310;2024-01-27T06:08:22;11.60;63.30
84173;DHT22;74302;40.122;18.310;2024-01-27T06:10:08;11.60;63.30
84173;DHT22;74302;40.122;18.310;2024-01-27T06:11:51;11.60;63.40
84173;DHT22;74302;40.122;18.310;2024-01-27T06:13:35;11.60;63.50
84173;DHT22;74302;40.122;18.310;2024-01-27T06:15:20;11.70;63.50
84173;DHT22;74302;40.122;18.310;2024-01-27T06:17:05;11.70;63.60
84173;DHT22;74302;40.122;18.310;2024-01-27T06:18:49;11.70;63.60
84173;DHT22;74302;40.122;18.310;2024-01-27T06:20:33;11.70;63.60
84173;DHT22;74302;40.122;18.310;2024-01-27T06:22:17;11.70;63.50
84173;DHT22;74302;40.122;18.310;2024-01-27T06:24:02;11.70;63.50
84173;DHT22;74302;40.122;18.310;2024-01-27T06:25:45;11.80;63.50
84173;DHT22;74302;40.122;18.310;2024-01-27T06:27:29;11.80;63.60
84173;DHT22;74302;40.122;18.310;2024-01-27T06:29:13;11.80;63.60
84173;DHT22;74302;40.122;18.310;2024-01-27T06:30:57;11.90;63.70
84173;DHT22;74302;40.122;18.310;2024-01-27T06:32:41;11.90;63.70
84173;DHT22;74302;40.122;18.310;2024-01-27T06:34:25;12.00;63.70
84173;DHT22;74302;40.122;18.310;2024-01-27T06:36:09;12.20;63.60
84173;DHT22;74302;40.122;18.310;2024-01-27T06:37:54;12.20;63.50
84173;DHT22;74302;40.122;18.310;2024-01-27T06:39:38;12.30;63.30
84173;DHT22;74302;40.122;18.310;2024-01-27T06:41:21;12.50;63.20
84173;DHT22;74302;40.122;18.310;2024-01-27T06:43:05;12.60;63.10
84173;DHT22;74302;40.122;18.310;2024-01-27T06:44:48;12.90;62.90
84173;DHT22;74302;40.122;18.310;2024-01-27T06:46:32;13.10;62.60
84173;DHT22;74302;40.122;18.310;2024-01-27T06:48:15;13.30;62.40
84173;DHT22;74302;40.122;18.310;2024-01-27T06:50:00;13.60;62.20
84173;DHT22;74302;40.122;18.310;2024-01-27T06:51:45;13.80;62.00
84173;DHT22;74302;40.122;18.310;2024-01-27T06:53:29;14.00;61.80
84173;DHT22;74302;40.122;18.310;2024-01-27T06:55:13;14.20;61.60
84173;DHT22;74302;40.122;18.310;2024-01-27T06:56:59;14.50;61.30
84173;DHT22;74302;40.122;18.310;2024-01-27T06:58:43;14.70;61.10
84173;DHT22;74302;40.122;18.310;2024-01-27T07:00:27;14.80;60.90
84173;DHT22;74302;40.122;18.310;2024-01-27T07:02:11;14.80;61.00
84173;DHT22;74302;40.122;18.310;2024-01-27T07:03:56;14.90;61.00
84173;DHT22;74302;40.122;18.310;2024-01-27T07:05:41;14.90;60.90
84173;DHT22;74302;40.122;18.310;2024-01-27T07:07:26;14.80;61.10
84173;DHT22;74302;40.122;18.310;2024-01-27T07:09:11;14.70;61.30
84173;DHT22;74302;40.122;18.310;2024-01-27T07:10:55;14.60;61.40
84173;DHT22;74302;40.122;18.310;2024-01-27T07:12:39;14.60;61.70
84173;DHT22;74302;40.122;18.310;2024-01-27T07:14:23;14.60;61.80
84173;DHT22;74302;40.122;18.310;2024-01-27T07:16:06;14.50;61.90
84173;DHT22;74302;40.122;18.310;2024-01-27T07:17:50;14.40;62.00
84173;DHT22;74302;40.122;18.310;2024-01-27T07:19:33;14.30;61.90
84173;DHT22;74302;40.122;18.310;2024-01-27T07:21:18;14.20;61.90
84173;DHT22;74302;40.122;18.310;2024-01-27T07:23:01;14.00;62.20
84173;DHT22;74302;40.122;18.310;2024-01-27T07:24:46;14.00;62.40
84173;DHT22;74302;40.122;18.310;2024-01-27T07:26:33;13.90;62.60
84173;DHT22;74302;40.122;18.310;2024-01-27T07:28:17;13.70;62.70
84173;DHT22;74302;40.122;18.310;2024-01-27T07:30:01;13.70;63.00
84173;DHT22;74302;40.122;18.310;2024-01-27T07:31:45;13.60;62.90
84173;DHT22;74302;40.122;18.310;2024-01-27T07:33:30;13.50;63.00
84173;DHT22;74302;40.122;18.310;2024-01-27T07:35:13;13.40;63.10
84173;DHT22;74302;40.122;18.310;2024-01-27T07:36:57;13.40;63.20
84173;DHT22;74302;40.122;18.310;2024-01-27T07:38:41;13.30;63.30
84173;DHT22;74302;40.122;18.310;2024-01-27T07:40:26;13.30;63.40
84173;DHT22;74302;40.122;18.310;2024-01-27T07:42:11;13.40;63.40
84173;DHT22;74302;40.122;18.310;2024-01-27T07:43:54;13.50;63.40
84173;DHT22;74302;40.122;18.310;2024-01-27T07:45:38;13.60;63.40
84173;DHT22;74302;40.122;18.310;2024-01-27T07:47:23;13.60;63.30
84173;DHT22;74302;40.122;18.310;2024-01-27T07:49:06;13.70;63.20
84173;DHT22;74302;40.122;18.310;2024-01-27T07:50:50;13.70;63.00
84173;DHT22;74302;40.122;18.310;2024-01-27T07:52:33;13.70;63.00
84173;DHT22;74302;40.122;18.310;2024-01-27T07:54:19;13.80;63.00
84173;DHT22;74302;40.122;18.310;2024-01-27T07:56:04;13.90;63.10
84173;DHT22;74302;40.122;18.310;2024-01-27T07:57:50;14.00;63.10
84173;DHT22;74302;40.122;18.310;2024-01-27T07:59:34;14.00;63.00
84173;DHT22;74302;40.122;18.310;2024-01-27T08:01:19;14.10;63.00
84173;DHT22;74302;40.122;18.310;2024-01-27T08:03:02;14.10;63.00
84173;DHT22;74302;40.122;18.310;2024-01-27T08:04:46;14.10;62.90
84173;DHT22;74302;40.122;18.310;2024-01-27T08:06:30;14.10;62.90
84173;DHT22;74302;40.122;18.310;2024-01-27T08:08:14;14.10;62.90
84173;DHT22;74302;40.122;18.310;2024-01-27T08:09:59;14.10;62.90
84173;DHT22;74302;40.122;18.310;2024-01-27T08:11:44;14.10;63.00
84173;DHT22;74302;40.122;18.310;2024-01-27T08:13:34;14.10;63.10
84173;DHT22;74302;40.122;18.310;2024-01-27T08:15:18;14.10;63.20
84173;DHT22;74302;40.122;18.310;2024-01-27T08:17:03;14.10;63.20
84173;DHT22;74302;40.122;18.310;2024-01-27T08:18:46;14.20;63.30
84173;DHT22;74302;40.122;18.310;2024-01-27T08:20:30;14.20;63.20
84173;DHT22;74302;40.122;18.310;2024-01-27T08:22:15;14.30;63.20
84173;DHT22;74302;40.122;18.310;2024-01-27T08:23:59;14.40;63.20
84173;DHT22;74302;40.122;18.310;2024-01-27T08:25:43;14.60;63.10
84173;DHT22;74302;40.122;18.310;2024-01-27T08:27:31;14.70;62.90
84173;DHT22;74302;40.122;18.310;2024-01-27T08:29:15;14.90;62.70
84173;DHT22;74302;40.122;18.310;2024-01-27T08:30:58;15.10;62.60
84173;DHT22;74302;40.122;18.310;2024-01-27T08:32:44;15.30;62.40
84173;DHT22;74302;40.122;18.310;2024-01-27T08:34:27;15.50;62.20
84173;DHT22;74302;40.122;18.310;2024-01-27T08:36:13;15.80;61.90
84173;DHT22;74302;40.122;18.310;2024-01-27T08:37:56;16.10;61.60
84173;DHT22;74302;40.122;18.310;2024-01-27T08:39:41;16.50;61.30
84173;DHT22;74302;40.122;18.310;2024-01-27T08:41:24;16.70;60.90
84173;DHT22;74302;40.122;18.310;2024-01-27T08:43:10;16.80;60.70
84173;DHT22;74302;40.122;18.310;2024-01-27T08:44:54;16.90;60.60
84173;DHT22;74302;40.122;18.310;2024-01-27T08:46:38;17.00;60.60
84173;DHT22;74302;40.122;18.310;2024-01-27T08:48:22;17.00;60.50
84173;DHT22;74302;40.122;18.310;2024-01-27T08:50:06;17.10;60.60
84173;DHT22;74302;40.122;18.310;2024-01-27T08:51:51;17.10;60.70
84173;DHT22;74302;40.122;18.310;2024-01-27T08:53:35;17.20;60.70
84173;DHT22;74302;40.122;18.310;2024-01-27T08:55:18;17.20;60.60
84173;DHT22;74302;40.122;18.310;2024-01-27T08:57:02;17.30;60.50
84173;DHT22;74302;40.122;18.310;2024-01-27T08:58:47;17.50;60.40
84173;DHT22;74302;40.122;18.310;2024-01-27T09:00:32;17.60;60.20
84173;DHT22;74302;40.122;18.310;2024-01-27T09:02:15;17.70;60.20
84173;DHT22;74302;40.122;18.310;2024-01-27T09:03:59;17.60;60.30
84173;DHT22;74302;40.122;18.310;2024-01-27T09:05:43;17.60;60.20
84173;DHT22;74302;40.122;18.310;2024-01-27T09:07:28;17.50;60.20
84173;DHT22;74302;40.122;18.310;2024-01-27T09:09:12;17.50;60.40
84173;DHT22;74302;40.122;18.310;2024-01-27T09:10:56;17.50;60.50
84173;DHT22;74302;40.122;18.310;2024-01-27T09:12:40;17.50;60.50
84173;DHT22;74302;40.122;18.310;2024-01-27T09:14:25;17.50;60.50
84173;DHT22;74302;40.122;18.310;2024-01-27T09:16:09;17.60;60.50
84173;DHT22;74302;40.122;18.310;2024-01-27T09:17:55;17.60;60.40
84173;DHT22;74302;40.122;18.310;2024-01-27T09:19:39;17.50;60.50
84173;DHT22;74302;40.122;18.310;2024-01-27T09:21:23;17.40;60.60
84173;DHT22;74302;40.122;18.310;2024-01-27T09:23:11;17.30;60.80
84173;DHT22;74302;40.122;18.310;2024-01-27T09:24:55;17.20;61.00
84173;DHT22;74302;40.122;18.310;2024-01-27T09:26:39;17.20;61.20
84173;DHT22;74302;40.122;18.310;2024-01-27T09:28:23;17.20;61.30
84173;DHT22;74302;40.122;18.310;2024-01-27T09:30:09;17.20;61.20
84173;DHT22;74302;40.122;18.310;2024-01-27T09:31:53;17.20;61.10
84173;DHT22;74302;40.122;18.310;2024-01-27T09:33:37;17.20;61.10
84173;DHT22;74302;40.122;18.310;2024-01-27T09:35:21;17.20;61.20
84173;DHT22;74302;40.122;18.310;2024-01-27T09:37:05;17.20;61.20
84173;DHT22;74302;40.122;18.310;2024-01-27T09:38:48;17.20;61.30
84173;DHT22;74302;40.122;18.310;2024-01-27T09:40:33;17.10;61.20
84173;DHT22;74302;40.122;18.310;2024-01-27T09:42:20;17.20;61.30
84173;DHT22;74302;40.122;18.310;2024-01-27T09:44:05;17.20;61.30
84173;DHT22;74302;40.122;18.310;2024-01-27T09:45:51;17.20;61.30
84173;DHT22;74302;40.122;18.310;2024-01-27T09:47:34;17.20;61.30
84173;DHT22;74302;40.122;18.310;2024-01-27T09:49:19;17.20;61.30
84173;DHT22;74302;40.122;18.310;2024-01-27T09:51:04;17.30;61.30
84173;DHT22;74302;40.122;18.310;2024-01-27T09:52:48;17.40;61.20
84173;DHT22;74302;40.122;18.310;2024-01-27T09:54:31;17.50;61.20
84173;DHT22;74302;40.122;18.310;2024-01-27T09:56:16;17.60;61.00
84173;DHT22;74302;40.122;18.310;2024-01-27T09:58:01;17.50;61.00
84173;DHT22;74302;40.122;18.310;2024-01-27T09:59:47;17.40;61.10
84173;DHT22;74302;40.122;18.310;2024-01-27T10:01:34;17.20;61.30
84173;DHT22;74302;40.122;18.310;2024-01-27T10:03:20;17.20;61.60
84173;DHT22;74302;40.122;18.310;2024-01-27T10:05:06;17.00;61.70
84173;DHT22;74302;40.122;18.310;2024-01-27T10:06:51;16.90;61.80
84173;DHT22;74302;40.122;18.310;2024-01-27T10:08:36;16.80;62.00
84173;DHT22;74302;40.122;18.310;2024-01-27T10:10:21;16.80;62.10
84173;DHT22;74302;40.122;18.310;2024-01-27T10:12:05;16.70;62.20
84173;DHT22;74302;40.122;18.310;2024-01-27T10:13:59;16.70;62.20
84173;DHT22;74302;40.122;18.310;2024-01-27T10:15:44;16.70;62.20
84173;DHT22;74302;40.122;18.310;2024-01-27T10:17:28;16.60;62.20
84173;DHT22;74302;40.122;18.310;2024-01-27T10:19:19;16.50;62.30
84173;DHT22;74302;40.122;18.310;2024-01-27T10:21:12;16.60;62.40
84173;DHT22;74302;40.122;18.310;2024-01-27T10:22:57;16.70;62.40
84173;DHT22;74302;40.122;18.310;2024-01-27T10:24:40;16.70;62.20
84173;DHT22;74302;40.122;18.310;2024-01-27T10:26:25;16.80;62.10
84173;DHT22;74302;40.122;18.310;2024-01-27T10:28:09;16.90;62.00
84173;DHT22;74302;40.122;18.310;2024-01-27T10:29:53;16.90;61.80
84173;DHT22;74302;40.122;18.310;2024-01-27T10:31:38;16.90;61.80
84173;DHT22;74302;40.122;18.310;2024-01-27T10:33:24;16.80;61.80
84173;DHT22;74302;40.122;18.310;2024-01-27T10:35:08;16.90;61.90
84173;DHT22;74302;40.122;18.310;2024-01-27T10:36:52;16.90;61.80
84173;DHT22;74302;40.122;18.310;2024-01-27T10:38:36;16.80;61.90
84173;DHT22;74302;40.122;18.310;2024-01-27T10:40:20;16.70;61.90
84173;DHT22;74302;40.122;18.310;2024-01-27T10:42:08;16.70;62.00
84173;DHT22;74302;40.122;18.310;2024-01-27T10:43:54;16.60;62.10
84173;DHT22;74302;40.122;18.310;2024-01-27T10:45:41;16.60;62.20
84173;DHT22;74302;40.122;18.310;2024-01-27T10:47:27;16.70;62.30
84173;DHT22;74302;40.122;18.310;2024-01-27T10:49:14;16.70;62.30
84173;DHT22;74302;40.122;18.310;2024-01-27T10:51:00;16.70;62.30
84173;DHT22;74302;40.122;18.310;2024-01-27T10:52:47;16.70;62.20
84173;DHT22;74302;40.122;18.310;2024-01-27T10:54:33;16.70;62.20
84173;DHT22;74302;40.122;18.310;2024-01-27T10:56:19;16.70;62.20
84173;DHT22;74302;40.122;18.310;2024-01-27T10:58:03;16.70;62.20
84173;DHT22;74302;40.122;18.310;2024-01-27T10:59:48;16.60;62.30
84173;DHT22;74302;40.122;18.310;2024-01-27T11:01:32;16.50;62.40
84173;DHT22;74302;40.122;18.310;2024-01-27T11:03:18;16.50;62.50
84173;DHT22;74302;40.122;18.310;2024-01-27T11:05:04;16.40;62.50
84173;DHT22;74302;40.122;18.310;2024-01-27T11:06:50;16.50;62.60
84173;DHT22;74302;40.122;18.310;2024-01-27T11:08:35;16.50;62.60
84173;DHT22;74302;40.122;18.310;2024-01-27T11:10:22;16.70;62.50
84173;DHT22;74302;40.122;18.310;2024-01-27T11:12:08;16.80;62.30
84173;DHT22;74302;40.122;18.310;2024-01-27T11:13:53;16.80;62.10